Time;durP1;ratioP1;P1;durP2;ratioP2;P2;SDS_P1;SDS_P2;PMS_P1;PMS_P2;Temp;Humidity;BMP_temperature;BMP_pressure;BME280_temperature;BME280_humidity;BME280_pressure;Samples;Min_cycle;Max_cycle;Signal;HPM_P1;HPM_P2
2021/05/07 00:00:40;;;;;;;5.87;1.50;;;;;;;8.43;100.00;101117.56;1809678;79;26238;-71
2021/05/07 00:03:10;;;;;;;5.80;1.40;;;;;;;8.46;100.00;101115.67;1809623;79;26714;-71
2021/05/07 00:05:39;;;;;;;5.10;1.70;;;;;;;8.40;100.00;101121.42;1809692;79;26206;-71
2021/05/07 00:08:09;;;;;;;5.97;2.13;;;;;;;8.31;100.00;101121.06;1809713;79;26210;-71
2021/05/07 00:10:39;;;;;;;2.73;1.30;;;;;;;8.23;100.00;101123.74;1809634;79;26227;-71
2021/05/07 00:13:09;;;;;;;4.90;1.70;;;;;;;8.20;100.00;101126.20;1809786;79;26226;-71
2021/05/07 00:15:38;;;;;;;5.33;1.60;;;;;;;8.20;100.00;101128.97;1809772;79;26650;-71
2021/05/07 00:18:09;;;;;;;5.07;2.10;;;;;;;8.11;100.00;101136.92;1809683;79;26211;-71
2021/05/07 00:20:38;;;;;;;4.27;1.43;;;;;;;8.02;100.00;101134.33;1809656;79;26732;-71
2021/05/07 00:23:09;;;;;;;5.10;1.77;;;;;;;7.97;100.00;101134.82;1809691;79;26297;-71
2021/05/07 00:25:40;;;;;;;1.70;1.53;;;;;;;7.99;100.00;101136.80;1797775;79;26264;-71
2021/05/07 00:28:12;;;;;;;4.00;1.30;;;;;;;7.99;100.00;101140.94;1809847;79;26305;-72
2021/05/07 00:30:43;;;;;;;5.10;1.73;;;;;;;7.99;100.00;101140.94;1809776;79;26270;-71
2021/05/07 00:33:12;;;;;;;3.70;1.37;;;;;;;7.94;100.00;101143.65;1809775;79;26768;-71
2021/05/07 00:35:42;;;;;;;3.57;1.50;;;;;;;7.85;100.00;101144.66;1809836;79;26316;-71
2021/05/07 00:38:14;;;;;;;5.13;1.80;;;;;;;7.77;100.00;101147.89;1809853;79;26246;-71
2021/05/07 00:40:44;;;;;;;4.87;1.77;;;;;;;7.83;100.00;101144.65;1809796;79;26223;-71
2021/05/07 00:43:14;;;;;;;5.50;1.67;;;;;;;7.83;100.00;101149.61;1809836;79;26222;-72
2021/05/07 00:45:47;;;;;;;4.37;1.63;;;;;;;7.85;100.00;101153.50;1809942;79;26748;-71
2021/05/07 00:48:19;;;;;;;4.93;1.43;;;;;;;7.75;100.00;101145.92;1810079;79;26202;-71
2021/05/07 00:50:49;;;;;;;4.37;1.57;;;;;;;7.50;100.00;101156.68;1809986;79;26714;-71
2021/05/07 00:53:21;;;;;;;5.17;2.13;;;;;;;7.54;100.00;101150.92;1809873;79;26662;-71
2021/05/07 00:55:51;;;;;;;5.10;1.70;;;;;;;7.43;100.00;101155.51;1809979;79;26717;-72
2021/05/07 00:58:21;;;;;;;4.00;1.67;;;;;;;7.39;100.00;101151.59;1809914;79;26210;-71
2021/05/07 01:00:53;;;;;;;3.67;1.43;;;;;;;7.26;100.00;101169.92;1809949;79;26230;-71
2021/05/07 01:03:23;;;;;;;6.10;1.83;;;;;;;7.23;100.00;101161.58;1809798;79;26382;-72
2021/05/07 01:05:53;;;;;;;7.00;1.60;;;;;;;7.21;100.00;101158.80;1809834;79;26324;-71
2021/05/07 01:08:23;;;;;;;6.83;1.57;;;;;;;7.35;100.00;101168.94;1809878;79;26319;-71
2021/05/07 01:10:53;;;;;;;6.10;1.57;;;;;;;7.17;100.00;101170.07;1809799;79;26744;-71
2021/05/07 01:13:23;;;;;;;8.17;1.80;;;;;;;7.22;100.00;101164.08;1809802;79;26758;-71
2021/05/07 01:15:53;;;;;;;6.93;2.37;;;;;;;7.35;100.00;101173.08;1809809;79;26258;-71
2021/05/07 01:18:23;;;;;;;5.27;1.60;;;;;;;7.42;100.00;101171.80;1809822;79;26340;-71
2021/05/07 01:20:52;;;;;;;5.30;1.73;;;;;;;7.44;100.00;101175.16;1809806;79;26277;-71
2021/05/07 01:23:22;;;;;;;5.50;1.47;;;;;;;7.41;100.00;101178.41;1810034;79;26757;-70
2021/05/07 01:25:52;;;;;;;4.50;1.77;;;;;;;7.40;100.00;101177.30;1797226;79;26299;-72
2021/05/07 01:28:22;;;;;;;5.93;2.03;;;;;;;7.42;100.00;101184.77;1809971;79;26218;-71
2021/05/07 01:30:52;;;;;;;4.70;1.47;;;;;;;7.37;100.00;101186.92;1810110;79;26198;-70
2021/05/07 01:33:22;;;;;;;4.00;1.40;;;;;;;7.39;100.00;101190.28;1809871;79;26223;-74
2021/05/07 01:35:53;;;;;;;4.90;2.10;;;;;;;7.41;100.00;101189.45;1809710;79;26715;-71
2021/05/07 01:38:24;;;;;;;4.30;1.77;;;;;;;7.37;100.00;101191.61;1809783;79;26709;-71
2021/05/07 01:40:54;;;;;;;3.37;1.30;;;;;;;7.34;100.00;101194.34;1809752;79;26651;-71
2021/05/07 01:43:24;;;;;;;3.90;1.63;;;;;;;7.31;100.00;101198.47;1809833;79;26285;-71
2021/05/07 01:45:54;;;;;;;3.23;1.30;;;;;;;7.24;100.00;101197.80;1809751;79;26277;-71
2021/05/07 01:48:24;;;;;;;2.30;1.40;;;;;;;7.19;100.00;101201.86;1809800;79;26222;-71
2021/05/07 01:50:53;;;;;;;5.40;1.63;;;;;;;7.23;100.00;101198.88;1809762;79;26311;-71
2021/05/07 01:53:23;;;;;;;4.73;1.67;;;;;;;7.20;100.00;101203.55;1809670;79;26249;-71
2021/05/07 01:55:53;;;;;;;4.97;1.50;;;;;;;7.20;100.00;101202.16;1809782;79;26243;-71
2021/05/07 01:58:23;;;;;;;2.97;1.60;;;;;;;7.23;100.00;101209.93;1809693;79;26243;-71
2021/05/07 02:00:52;;;;;;;3.93;1.50;;;;;;;7.20;100.00;101209.61;1809686;79;26258;-71
2021/05/07 02:03:22;;;;;;;2.93;1.70;;;;;;;7.15;100.00;101208.98;1809771;79;26819;-71
2021/05/07 02:05:52;;;;;;;5.43;1.37;;;;;;;7.20;100.00;101213.75;1809715;79;26187;-71
2021/05/07 02:08:22;;;;;;;3.83;1.50;;;;;;;7.20;100.00;101214.59;1809684;79;26207;-71
2021/05/07 02:10:52;;;;;;;6.23;1.70;;;;;;;7.13;100.00;101219.47;1809952;79;26207;-71
2021/05/07 02:13:22;;;;;;;4.53;1.47;;;;;;;7.11;100.00;101214.73;1809781;79;26261;-71
2021/05/07 02:15:51;;;;;;;5.97;1.57;;;;;;;7.13;100.00;101224.16;1809790;79;26218;-71
2021/05/07 02:18:24;;;;;;;7.73;1.60;;;;;;;7.04;100.00;101219.61;1809690;79;26222;-71
2021/05/07 02:20:55;;;;;;;5.40;1.70;;;;;;;7.01;100.00;101222.88;1809945;79;26713;-71
2021/05/07 02:23:25;;;;;;;7.30;1.77;;;;;;;6.98;100.00;101237.17;1809757;79;26219;-71
2021/05/07 02:25:57;;;;;;;4.90;1.47;;;;;;;6.89;100.00;101240.63;1797302;79;26278;-70
2021/05/07 02:28:26;;;;;;;6.23;1.77;;;;;;;6.88;100.00;101241.17;1741253;81;26241;-71
2021/05/07 02:30:56;;;;;;;7.67;1.77;;;;;;;6.91;100.00;101247.56;1756846;82;26193;-71
2021/05/07 02:33:26;;;;;;;4.37;1.93;;;;;;;6.91;100.00;101248.95;1755160;81;26337;-71
2021/05/07 02:35:56;;;;;;;4.37;1.60;;;;;;;6.98;100.00;101247.38;1823803;79;26210;-71
2021/05/07 02:38:26;;;;;;;5.73;1.73;;;;;;;6.95;100.00;101257.02;1809679;79;26711;-71
2021/05/07 02:40:56;;;;;;;5.17;1.63;;;;;;;6.91;100.00;101258.61;1809665;79;26218;-71
2021/05/07 02:43:26;;;;;;;3.17;1.50;;;;;;;6.77;100.00;101266.38;1809695;79;26714;-71
2021/05/07 02:45:56;;;;;;;2.70;1.37;;;;;;;6.95;100.00;101273.59;1809764;79;26210;-71
2021/05/07 02:48:26;;;;;;;5.03;1.70;;;;;;;6.95;100.00;101279.66;1809666;79;26658;-72
2021/05/07 02:50:56;;;;;;;6.73;2.00;;;;;;;6.82;100.00;101283.58;1809747;79;26239;-71
2021/05/07 02:53:26;;;;;;;4.13;2.00;;;;;;;6.71;100.00;101284.50;1809641;79;26290;-71
2021/05/07 02:55:56;;;;;;;6.40;1.67;;;;;;;6.73;100.00;101281.77;1809771;79;26205;-71
2021/05/07 02:58:26;;;;;;;3.73;1.43;;;;;;;6.69;100.00;101287.50;1809575;79;26198;-71
2021/05/07 03:00:56;;;;;;;5.77;2.47;;;;;;;6.64;100.00;101292.92;1809613;79;26234;-71
2021/05/07 03:03:25;;;;;;;6.27;2.03;;;;;;;6.73;100.00;101294.73;1809577;79;26242;-71
2021/05/07 03:05:55;;;;;;;4.97;1.50;;;;;;;6.82;100.00;101301.53;1809690;79;26207;-71
2021/05/07 03:08:26;;;;;;;3.47;1.40;;;;;;;6.81;100.00;101299.30;1809825;79;26244;-71
2021/05/07 03:10:55;;;;;;;5.17;1.77;;;;;;;6.83;100.00;101297.14;1809728;79;26768;-71
2021/05/07 03:13:25;;;;;;;8.67;2.23;;;;;;;6.76;100.00;101292.88;1809607;79;26661;-71
2021/05/07 03:15:55;;;;;;;5.60;1.70;;;;;;;6.77;100.00;101298.13;1809638;79;26214;-71
2021/05/07 03:18:26;;;;;;;5.63;1.90;;;;;;;6.78;100.00;101301.19;1809678;79;26223;-71
2021/05/07 03:21:13;;;;;;;6.67;2.10;;;;;;;6.74;100.00;101305.54;1753076;81;33464;-72
2021/05/07 03:23:43;;;;;;;6.03;2.03;;;;;;;6.70;100.00;101307.13;1753573;81;26818;-71
2021/05/07 03:26:12;;;;;;;5.60;1.80;;;;;;;6.69;100.00;101313.73;1753598;82;26433;-71
2021/05/07 03:28:42;;;;;;;4.97;2.43;;;;;;;6.67;100.00;101311.77;1753594;81;27219;-71
2021/05/07 03:31:12;;;;;;;5.17;1.80;;;;;;;6.69;100.00;101314.27;1753707;82;26389;-71
2021/05/07 03:33:44;;;;;;;4.80;2.13;;;;;;;6.65;100.00;101318.61;1753623;81;26685;-71
2021/05/07 03:36:14;;;;;;;7.13;2.07;;;;;;;6.68;100.00;101323.08;1753631;81;26371;-71
2021/05/07 03:38:44;;;;;;;5.20;1.77;;;;;;;6.62;100.00;101330.99;1753569;82;26261;-71
2021/05/07 03:41:14;;;;;;;5.73;1.80;;;;;;;6.63;100.00;101331.27;1753604;81;26351;-71
2021/05/07 03:43:44;;;;;;;9.87;2.03;;;;;;;6.53;100.00;101330.25;1753672;82;26245;-71
2021/05/07 03:46:14;;;;;;;6.10;1.80;;;;;;;6.58;100.00;101341.39;1753598;81;26256;-71
2021/05/07 03:48:43;;;;;;;6.73;1.93;;;;;;;6.56;100.00;101346.31;1753590;82;26296;-71
2021/05/07 03:51:13;;;;;;;7.70;2.10;;;;;;;6.55;100.00;101342.70;1753577;82;26771;-72
2021/05/07 03:53:44;;;;;;;4.60;2.13;;;;;;;6.51;100.00;101344.28;1808209;79;26235;-71
2021/05/07 03:56:14;;;;;;;4.70;1.63;;;;;;;6.58;100.00;101345.00;1809613;79;26258;-71
2021/05/07 03:58:44;;;;;;;7.93;2.03;;;;;;;6.59;100.00;101345.84;1809615;79;26207;-71
2021/05/07 04:01:14;;;;;;;5.60;1.60;;;;;;;6.63;100.00;101352.54;1787674;79;930551;-71
2021/05/07 04:03:44;;;;;;;5.43;1.83;;;;;;;6.61;100.00;101350.02;1787857;80;26250;-71
2021/05/07 04:06:17;;;;;;;9.20;2.07;;;;;;;6.58;100.00;101354.66;1787884;80;26222;-71
2021/05/07 04:08:54;;;;;;;6.17;1.80;;;;;;;6.57;100.00;101357.11;1787915;80;26226;-71
2021/05/07 04:11:29;;;;;;;3.83;1.50;;;;;;;6.49;100.00;101358.89;1788715;79;26223;-71
2021/05/07 04:13:50;;;;;;;9.03;1.73;;;;;;;6.53;100.00;101358.69;1788946;79;26203;-71
2021/05/07 04:16:21;;;;;;;5.00;1.50;;;;;;;6.56;100.00;101358.73;1788093;80;26297;-71
2021/05/07 04:18:55;;;;;;;5.67;1.60;;;;;;;6.50;100.00;101357.81;1788168;80;26223;-72
2021/05/07 04:21:26;;;;;;;4.70;1.63;;;;;;;6.50;100.00;101362.49;1788179;80;26384;-71
2021/05/07 04:23:55;;;;;;;6.40;2.10;;;;;;;6.49;100.00;101369.09;1788158;80;26721;-72
2021/05/07 04:26:25;;;;;;;6.70;2.27;;;;;;;6.45;100.00;101374.27;1788545;79;26308;-71
2021/05/07 04:28:55;;;;;;;8.10;2.50;;;;;;;6.39;100.00;101377.99;1819159;78;26205;-72
2021/05/07 04:31:25;;;;;;;4.73;1.97;;;;;;;6.38;100.00;101377.15;1785958;80;26246;-71
2021/05/07 04:33:54;;;;;;;4.93;1.73;;;;;;;6.36;100.00;101384.84;1785906;80;26230;-72
2021/05/07 04:36:24;;;;;;;7.93;2.00;;;;;;;6.37;100.00;101384.31;1785988;80;26250;-72
2021/05/07 04:38:56;;;;;;;3.73;1.47;;;;;;;6.36;100.00;101393.13;1785895;80;26657;-71
2021/05/07 04:41:26;;;;;;;6.10;1.60;;;;;;;6.39;100.00;101399.53;1785778;80;26237;-72
2021/05/07 04:43:55;;;;;;;3.57;1.90;;;;;;;6.33;100.00;101394.97;1785908;80;26681;-71
2021/05/07 04:46:25;;;;;;;6.83;1.63;;;;;;;6.21;100.00;101405.73;1785977;80;26304;-71
2021/05/07 04:48:55;;;;;;;5.43;1.87;;;;;;;6.11;100.00;101410.52;1786077;80;26275;-71
2021/05/07 04:51:25;;;;;;;6.20;1.90;;;;;;;5.86;100.00;101418.18;1786060;80;26743;-71
2021/05/07 04:53:55;;;;;;;5.37;1.90;;;;;;;5.84;100.00;101425.84;1786143;80;26288;-71
2021/05/07 04:56:25;;;;;;;7.30;2.30;;;;;;;5.94;100.00;101420.06;1786009;80;26316;-72
2021/05/07 04:58:55;;;;;;;3.70;1.97;;;;;;;6.10;100.00;101430.89;1786130;79;26322;-72
2021/05/07 05:01:25;;;;;;;4.00;1.70;;;;;;;6.14;100.00;101429.33;1785949;80;26747;-71
2021/05/07 05:03:55;;;;;;;6.50;2.37;;;;;;;6.18;100.00;101427.77;1816133;79;26248;-71
2021/05/07 05:06:24;;;;;;;8.00;2.30;;;;;;;6.23;100.00;101429.26;1774438;81;26309;-71
2021/05/07 05:08:54;;;;;;;4.97;1.73;;;;;;;6.27;100.00;101426.31;1774366;81;26234;-70
2021/05/07 05:11:24;;;;;;;6.20;1.90;;;;;;;6.26;100.00;101426.00;1774355;81;26725;-71
2021/05/07 05:13:54;;;;;;;4.70;2.00;;;;;;;6.35;100.00;101429.23;1816032;79;26256;-71
2021/05/07 05:16:24;;;;;;;6.07;2.47;;;;;;;6.42;100.00;101436.81;1816062;79;26204;-71
2021/05/07 05:18:53;;;;;;;3.57;1.40;;;;;;;6.37;100.00;101439.50;1816102;79;26240;-71
2021/05/07 05:21:23;;;;;;;8.10;1.90;;;;;;;6.36;100.00;101436.43;1774321;81;26278;-71
2021/05/07 05:23:54;;;;;;;8.07;1.60;;;;;;;6.35;100.00;101445.24;1774442;81;26278;-71
2021/05/07 05:26:23;;;;;;;5.60;1.73;;;;;;;6.46;100.00;101440.77;1816131;79;26336;-72
2021/05/07 05:28:53;;;;;;;3.93;1.83;;;;;;;6.46;100.00;101438.58;1804526;78;26809;-71
2021/05/07 05:31:23;;;;;;;7.43;2.00;;;;;;;6.51;100.00;101449.16;1816018;79;26248;-71
2021/05/07 05:33:53;;;;;;;4.80;1.83;;;;;;;6.46;100.00;101455.13;1816139;79;26248;-71
2021/05/07 05:36:24;;;;;;;4.93;1.80;;;;;;;6.54;100.00;101456.12;1816155;79;26758;-71
2021/05/07 05:38:54;;;;;;;4.17;1.87;;;;;;;6.58;100.00;101455.40;1774410;81;26245;-71
2021/05/07 05:41:24;;;;;;;8.33;2.13;;;;;;;6.59;100.00;101460.38;1774468;81;26269;-71
2021/05/07 05:43:53;;;;;;;4.10;1.90;;;;;;;6.55;100.00;101460.01;1816195;79;26267;-72
2021/05/07 05:46:23;;;;;;;4.80;1.97;;;;;;;6.61;100.00;101470.63;1774525;81;26281;-71
2021/05/07 05:48:53;;;;;;;7.63;1.70;;;;;;;6.72;100.00;101478.86;1774414;81;26836;-72
2021/05/07 05:51:23;;;;;;;9.27;2.00;;;;;;;6.81;100.00;101479.31;1816013;79;26243;-72
2021/05/07 05:53:52;;;;;;;5.07;1.77;;;;;;;6.81;100.00;101482.92;1774418;81;26329;-72
2021/05/07 05:56:22;;;;;;;4.10;1.83;;;;;;;6.82;100.00;101488.75;1774361;81;26257;-72
2021/05/07 05:58:52;;;;;;;4.50;1.63;;;;;;;6.86;100.00;101484.95;1774533;81;26250;-71
2021/05/07 06:01:22;;;;;;;4.23;1.57;;;;;;;6.85;100.00;101486.02;1774474;81;26673;-72
2021/05/07 06:03:52;;;;;;;3.00;1.87;;;;;;;6.92;100.00;101492.27;1816018;79;26252;-72
2021/05/07 06:06:21;;;;;;;6.40;1.73;;;;;;;6.94;100.00;101494.22;1816180;79;26651;-71
2021/05/07 06:08:51;;;;;;;3.43;1.83;;;;;;;6.98;100.00;101496.79;1774450;81;26304;-71
2021/05/07 06:11:21;;;;;;;4.83;2.00;;;;;;;7.00;100.00;101501.54;1816134;79;26355;-71
2021/05/07 06:13:51;;;;;;;5.53;1.97;;;;;;;7.04;100.00;101501.87;1774581;81;26222;-71
2021/05/07 06:16:21;;;;;;;5.63;1.93;;;;;;;7.09;100.00;101502.83;1774470;81;26377;-71
2021/05/07 06:18:50;;;;;;;5.27;2.07;;;;;;;7.14;100.00;101509.84;1774422;81;26223;-71
2021/05/07 06:21:20;;;;;;;5.37;2.00;;;;;;;7.18;100.00;101512.94;1816131;79;26208;-71
2021/05/07 06:23:50;;;;;;;5.57;1.90;;;;;;;7.21;100.00;101515.20;1774465;81;26247;-71
2021/05/07 06:26:20;;;;;;;7.60;2.30;;;;;;;7.33;100.00;101524.27;1774467;81;26410;-72
2021/05/07 06:28:51;;;;;;;7.00;2.10;;;;;;;7.33;100.00;101520.97;1816092;78;26338;-71
2021/05/07 06:31:21;;;;;;;7.30;1.67;;;;;;;7.36;100.00;101522.96;1774609;81;26285;-73
2021/05/07 06:33:50;;;;;;;4.17;1.80;;;;;;;7.37;100.00;101521.84;1816004;79;26643;-72
2021/05/07 06:36:20;;;;;;;6.50;2.30;;;;;;;7.44;100.00;101523.94;1774354;81;26297;-72
2021/05/07 06:38:50;;;;;;;6.73;1.97;;;;;;;7.49;100.00;101526.23;1774412;81;26316;-71
2021/05/07 06:41:21;;;;;;;7.07;1.90;;;;;;;7.51;100.00;101524.61;1774379;81;26748;-72
2021/05/07 06:43:52;;;;;;;6.13;2.23;;;;;;;7.62;100.00;101523.16;1774271;81;26239;-71
2021/05/07 06:46:22;;;;;;;6.43;2.07;;;;;;;7.63;100.00;101524.84;1774366;81;26323;-71
2021/05/07 06:48:52;;;;;;;6.43;2.10;;;;;;;7.66;100.00;101529.02;1816087;79;26611;-72
2021/05/07 06:51:22;;;;;;;9.27;2.13;;;;;;;7.76;100.00;101523.14;1774557;81;26218;-71
2021/05/07 06:53:51;;;;;;;3.77;1.77;;;;;;;7.83;100.00;101532.64;1774349;81;26706;-71
2021/05/07 06:56:21;;;;;;;4.70;1.67;;;;;;;7.91;100.00;101536.95;1774433;81;26230;-71
2021/05/07 06:58:51;;;;;;;5.13;2.00;;;;;;;7.95;100.00;101540.88;1816176;79;26193;-72
2021/05/07 07:01:21;;;;;;;5.17;2.30;;;;;;;8.03;100.00;101537.16;1816198;79;26192;-71
2021/05/07 07:03:52;;;;;;;6.40;1.83;;;;;;;8.13;100.00;101539.22;1774364;81;26359;-74
2021/05/07 07:06:21;;;;;;;5.27;2.10;;;;;;;8.24;100.00;101541.92;1774360;81;26302;-71
2021/05/07 07:08:51;;;;;;;4.13;2.00;;;;;;;8.32;100.00;101542.61;1774403;81;26226;-71
2021/05/07 07:11:21;;;;;;;6.57;1.87;;;;;;;8.42;100.00;101549.16;1774263;81;26234;-71
2021/05/07 07:13:51;;;;;;;6.77;2.07;;;;;;;8.43;100.00;101552.77;1774293;81;26226;-71
2021/05/07 07:16:21;;;;;;;4.57;1.57;;;;;;;8.54;100.00;101554.03;1774333;81;26235;-71
2021/05/07 07:18:51;;;;;;;5.03;2.00;;;;;;;8.56;100.00;101549.06;1816145;79;26604;-72
2021/05/07 07:21:21;;;;;;;4.43;1.90;;;;;;;8.73;100.00;101557.33;1774256;81;26227;-71
2021/05/07 07:23:50;;;;;;;6.70;1.87;;;;;;;8.87;100.00;101552.26;1816036;79;26220;-72
2021/05/07 07:26:20;;;;;;;4.33;1.67;;;;;;;8.95;100.00;101555.96;1815932;79;26201;-72
2021/05/07 07:28:53;;;;;;;7.80;2.03;;;;;;;9.12;100.00;101558.13;1774453;80;26246;-72
2021/05/07 07:31:23;;;;;;;5.73;1.70;;;;;;;9.25;100.00;101558.28;1815835;79;26220;-72
2021/05/07 07:33:53;;;;;;;5.13;2.23;;;;;;;9.45;100.00;101560.76;1774304;81;26230;-72
2021/05/07 07:36:23;;;;;;;6.13;1.67;;;;;;;9.64;100.00;101558.98;1774284;81;26748;-72
2021/05/07 07:38:53;;;;;;;5.83;1.57;;;;;;;9.84;100.00;101553.66;1774266;81;26246;-72
2021/05/07 07:41:22;;;;;;;3.07;1.40;;;;;;;9.93;100.00;101566.77;1774272;81;26242;-72
2021/05/07 07:43:52;;;;;;;5.83;1.73;;;;;;;9.95;100.00;101571.52;1774398;81;26250;-72
2021/05/07 07:46:22;;;;;;;4.97;1.97;;;;;;;10.09;100.00;101569.70;1774377;81;26796;-71
2021/05/07 07:48:54;;;;;;;4.77;1.30;;;;;;;10.23;100.00;101576.48;1774448;81;26733;-72
2021/05/07 07:51:29;;;;;;;5.37;1.43;;;;;;;10.40;100.00;101578.02;1816075;79;26809;-71
2021/05/07 07:53:57;;;;;;;6.40;1.50;;;;;;;10.53;100.00;101578.11;1774326;81;26241;-72
2021/05/07 07:56:27;;;;;;;8.87;1.70;;;;;;;10.59;100.00;101583.16;1774411;81;26701;-71
2021/05/07 07:58:56;;;;;;;4.60;1.40;;;;;;;10.72;100.00;101584.92;1816111;79;26203;-71
2021/05/07 08:01:28;;;;;;;5.00;1.63;;;;;;;10.71;100.00;101580.47;1774612;81;26223;-72
2021/05/07 08:03:58;;;;;;;4.33;1.30;;;;;;;10.85;100.00;101585.00;1774506;81;26360;-72
2021/05/07 08:06:27;;;;;;;5.27;1.10;;;;;;;11.08;100.00;101589.30;1816383;79;26189;-72
2021/05/07 08:08:57;;;;;;;3.83;1.60;;;;;;;11.29;100.00;101592.45;1774496;81;26328;-72
2021/05/07 08:11:28;;;;;;;4.30;1.13;;;;;;;11.58;100.00;101592.27;1774405;81;26701;-71
2021/05/07 08:13:58;;;;;;;4.00;1.37;;;;;;;11.78;100.00;101590.95;1774484;81;26231;-71
2021/05/07 08:16:29;;;;;;;4.10;1.10;;;;;;;11.82;100.00;101588.45;1774475;81;26250;-71
2021/05/07 08:18:59;;;;;;;2.63;1.23;;;;;;;11.79;100.00;101598.20;1774510;81;26682;-71
2021/05/07 08:21:29;;;;;;;3.50;1.10;;;;;;;11.83;100.00;101592.91;1774538;81;26231;-72
2021/05/07 08:23:59;;;;;;;2.87;1.10;;;;;;;11.84;100.00;101591.81;1774427;81;26763;-72
2021/05/07 08:26:30;;;;;;;3.83;1.30;;;;;;;11.94;100.00;101591.80;1774381;81;26659;-72
2021/05/07 08:29:00;;;;;;;2.90;1.63;;;;;;;11.79;100.00;101590.41;1774390;81;26223;-72
2021/05/07 08:31:30;;;;;;;3.97;1.50;;;;;;;11.85;100.00;101598.47;1816081;78;26330;-72
2021/05/07 08:34:00;;;;;;;1.87;0.97;;;;;;;11.99;100.00;101597.94;1816042;79;26717;-72
2021/05/07 08:36:30;;;;;;;4.03;1.30;;;;;;;12.02;100.00;101601.59;1816167;79;26274;-71
2021/05/07 08:38:59;;;;;;;5.97;1.27;;;;;;;11.92;97.43;101607.97;1774463;81;26221;-72
2021/05/07 08:41:29;;;;;;;4.63;1.20;;;;;;;12.10;98.00;101601.03;1774553;81;26661;-72
2021/05/07 08:43:59;;;;;;;4.97;1.30;;;;;;;12.18;99.29;101594.91;1774317;81;26301;-71
2021/05/07 08:46:29;;;;;;;2.87;1.13;;;;;;;12.17;98.79;101608.55;1815999;79;26247;-72
2021/05/07 08:49:01;;;;;;;3.50;1.10;;;;;;;12.51;100.00;101601.86;1774353;81;26639;-72
2021/05/07 08:51:31;;;;;;;3.83;1.20;;;;;;;12.59;98.82;101609.09;1774562;81;26696;-72
2021/05/07 08:54:00;;;;;;;3.53;1.00;;;;;;;12.97;100.00;101610.42;1816115;79;26189;-72
2021/05/07 08:56:30;;;;;;;3.60;1.10;;;;;;;12.69;92.98;101613.83;1774326;81;26328;-72
2021/05/07 08:59:01;;;;;;;2.40;1.10;;;;;;;13.42;100.00;101602.50;1816075;79;26270;-72
2021/05/07 09:01:42;;;;;;;5.00;1.10;;;;;;;13.15;87.81;101614.59;1774418;81;26301;-72
2021/05/07 09:04:12;;;;;;;4.07;0.80;;;;;;;13.31;91.70;101606.44;1816014;79;26309;-72
2021/05/07 09:06:50;;;;;;;3.23;1.50;;;;;;;13.11;86.58;101619.07;1774308;81;26230;-72
2021/05/07 09:09:24;;;;;;;4.23;1.27;;;;;;;12.80;84.21;101619.66;1816282;77;26277;-72
2021/05/07 09:11:55;;;;;;;2.50;1.20;;;;;;;12.95;85.38;101616.02;1774439;81;26743;-72
2021/05/07 09:14:26;;;;;;;3.67;1.20;;;;;;;12.90;84.67;101621.05;1774367;81;26687;-72
2021/05/07 09:16:58;;;;;;;3.17;1.70;;;;;;;12.98;83.60;101622.41;1816108;79;26402;-72
2021/05/07 09:19:30;;;;;;;2.83;1.50;;;;;;;13.00;85.23;101613.22;1816041;79;26621;-72
2021/05/07 09:22:00;;;;;;;3.83;1.40;;;;;;;12.88;88.24;101618.27;1774341;81;26704;-73
2021/05/07 09:24:34;;;;;;;4.57;1.23;;;;;;;13.43;94.31;101616.73;1815955;79;26278;-72
2021/05/07 09:27:06;;;;;;;3.53;1.20;;;;;;;13.59;86.03;101614.70;1815979;79;26204;-72
2021/05/07 09:29:36;;;;;;;3.97;1.60;;;;;;;13.26;80.54;101625.17;1816049;79;26825;-72
2021/05/07 09:32:06;;;;;;;2.90;1.43;;;;;;;13.05;84.04;101622.39;1816072;78;26295;-73
2021/05/07 09:34:38;;;;;;;4.77;1.63;;;;;;;13.17;86.09;101623.53;1774437;81;26286;-72
2021/05/07 09:37:17;;;;;;;4.67;1.30;;;;;;;13.02;82.69;101623.52;1774550;81;26697;-73
2021/05/07 09:39:47;;;;;;;5.07;1.40;;;;;;;13.43;87.60;101613.11;1774421;81;26242;-73
2021/05/07 09:42:24;;;;;;;2.87;1.83;;;;;;;13.36;84.59;101617.58;1774468;81;26308;-72
2021/05/07 09:44:54;;;;;;;6.03;1.70;;;;;;;13.38;87.11;101619.55;1774342;81;26677;-73
2021/05/07 09:47:24;;;;;;;3.10;1.60;;;;;;;13.10;84.24;101625.20;1774429;81;26242;-73
2021/05/07 09:50:02;;;;;;;6.40;1.40;;;;;;;13.05;87.87;101633.55;1774528;81;26230;-73
2021/05/07 09:52:32;;;;;;;2.60;1.87;;;;;;;13.26;87.39;101630.20;1816173;79;26212;-74
2021/05/07 09:55:02;;;;;;;4.47;1.47;;;;;;;13.57;90.96;101630.33;1774447;81;26312;-73
2021/05/07 09:57:33;;;;;;;4.07;1.67;;;;;;;13.74;88.68;101631.36;1774551;81;26304;-73
2021/05/07 10:00:04;;;;;;;4.13;1.60;;;;;;;13.54;80.96;101633.70;1816193;79;26652;-73
2021/05/07 10:02:35;;;;;;;3.83;1.40;;;;;;;13.50;85.13;101623.39;1816140;79;26679;-72
2021/05/07 10:05:06;;;;;;;3.00;1.27;;;;;;;13.67;86.39;101628.89;1774480;81;26304;-72
2021/05/07 10:07:36;;;;;;;2.97;1.40;;;;;;;13.79;86.71;101630.50;1774425;81;26654;-72
2021/05/07 10:10:09;;;;;;;3.67;1.60;;;;;;;13.61;84.20;101631.98;1816055;79;26200;-72
2021/05/07 10:12:41;;;;;;;2.40;1.30;;;;;;;13.44;85.53;101635.12;1774420;81;26321;-72
2021/05/07 10:15:12;;;;;;;4.60;1.60;;;;;;;12.91;83.36;101638.62;1816004;79;26295;-71
2021/05/07 10:17:51;;;;;;;2.93;1.27;;;;;;;13.14;92.53;101637.47;1774368;81;26242;-72
2021/05/07 10:20:33;;;;;;;4.30;1.50;;;;;;;13.63;86.73;101636.17;1774323;81;26227;-71
2021/05/07 10:23:14;;;;;;;3.43;1.60;;;;;;;13.28;84.21;101636.87;1774343;81;26662;-71
2021/05/07 10:25:59;;;;;;;4.03;1.80;;;;;;;13.36;89.67;101642.70;1816027;79;26215;-72
2021/05/07 10:28:32;;;;;;;4.63;1.70;;;;;;;13.72;82.88;101636.97;1774417;81;26234;-72
2021/05/07 10:31:07;;;;;;;3.60;1.37;;;;;;;13.83;80.35;101640.80;1818156;77;26282;-72
2021/05/07 10:33:37;;;;;;;3.77;1.80;;;;;;;13.67;80.67;101643.41;1774432;81;26314;-72
2021/05/07 10:36:08;;;;;;;1.97;1.30;;;;;;;13.41;81.22;101651.06;1774334;81;26246;-73
2021/05/07 10:38:48;;;;;;;6.97;1.87;;;;;;;13.80;83.92;101651.16;1774492;81;26254;-72
2021/05/07 10:41:18;;;;;;;3.40;1.50;;;;;;;13.88;83.50;101648.32;1816067;79;26695;-73
2021/05/07 10:43:48;;;;;;;3.37;1.70;;;;;;;13.52;80.52;101589.87;1774529;81;26331;-73
2021/05/07 10:46:26;;;;;;;3.87;1.50;;;;;;;13.84;81.50;101642.48;1816069;79;26722;-72
2021/05/07 10:48:58;;;;;;;5.17;1.53;;;;;;;13.94;79.71;101647.19;1774332;81;26653;-72
2021/05/07 10:51:29;;;;;;;2.90;1.40;;;;;;;13.75;75.82;101648.39;1774392;81;26278;-72
2021/05/07 10:54:10;;;;;;;4.43;1.87;;;;;;;13.98;79.45;101648.28;1774318;81;26678;-72
2021/05/07 10:56:42;;;;;;;3.00;1.30;;;;;;;14.22;79.41;101644.19;1774370;81;26235;-72
2021/05/07 10:59:17;;;;;;;3.07;1.60;;;;;;;14.20;79.11;101645.06;1774443;81;26792;-72
2021/05/07 11:01:58;;;;;;;5.03;1.50;;;;;;;13.80;72.67;101647.53;1774384;81;26763;-72
2021/05/07 11:04:30;;;;;;;2.47;1.10;;;;;;;13.65;76.08;101647.88;1816073;79;26232;-72
2021/05/07 11:07:04;;;;;;;3.13;1.10;;;;;;;13.76;76.80;101641.69;1817557;77;26636;-72
2021/05/07 11:09:34;;;;;;;4.17;1.30;;;;;;;13.99;76.21;101644.37;1774354;81;26374;-71
2021/05/07 11:12:06;;;;;;;3.07;1.40;;;;;;;13.86;73.81;101647.20;1774299;81;26231;-72
2021/05/07 11:14:39;;;;;;;2.67;1.30;;;;;;;13.55;74.18;101656.31;1774313;81;26650;-72
2021/05/07 11:17:17;;;;;;;5.03;1.43;;;;;;;13.52;75.70;101653.27;1815969;79;26792;-73
2021/05/07 11:19:47;;;;;;;2.17;1.60;;;;;;;13.70;77.89;101654.00;1816019;79;26212;-72
2021/05/07 11:22:17;;;;;;;4.00;1.37;;;;;;;13.87;75.97;101646.64;1774432;81;26301;-73
2021/05/07 11:24:47;;;;;;;4.93;1.20;;;;;;;13.90;71.35;101644.14;1816134;79;26216;-72
2021/05/07 11:27:21;;;;;;;2.90;1.57;;;;;;;14.46;76.71;101640.39;1774350;81;26246;-72
2021/05/07 11:29:51;;;;;;;4.47;1.57;;;;;;;14.82;73.45;101640.09;1815979;79;26207;-73
2021/05/07 11:32:23;;;;;;;2.33;1.20;;;;;;;14.57;69.76;101642.00;1815917;78;26671;-72
2021/05/07 11:34:55;;;;;;;2.80;1.30;;;;;;;14.72;68.36;101645.20;1774328;81;26246;-72
2021/05/07 11:37:27;;;;;;;4.50;1.40;;;;;;;14.58;70.36;101643.67;1774303;81;26309;-72
2021/05/07 11:39:58;;;;;;;2.83;1.40;;;;;;;14.47;70.79;101651.86;1774275;81;26234;-72